sensor_id;sensor_type;location;lat;lon;timestamp;pressure;altitude;pressure_sealevel;temperature
48628;BMP280;34424;52.234;6.500;2024-03-17T00:02:03;102267.9;;;1.380195
48628;BMP280;34424;52.234;6.500;2024-03-17T00:07:03;102266.8;;;1.34875
48628;BMP280;34424;52.234;6.500;2024-03-17T00:12:03;102261.9;;;1.306953
48628;BMP280;34424;52.234;6.500;2024-03-17T00:17:03;102261.4;;;1.312227
48628;BMP280;34424;52.234;6.500;2024-03-17T00:22:03;102253.3;;;1.299141
48628;BMP280;34424;52.234;6.500;2024-03-17T00:27:03;102245.2;;;1.202461
48628;BMP280;34424;52.234;6.500;2024-03-17T00:32:03;102245.9;;;1.150117
48628;BMP280;34424;52.234;6.500;2024-03-17T00:37:03;102233.9;;;1.144844
48628;BMP280;34424;52.234;6.500;2024-03-17T00:42:03;102229.3;;;1.184102
48628;BMP280;34424;52.234;6.500;2024-03-17T00:47:03;102223.5;;;1.197188
48628;BMP280;34424;52.234;6.500;2024-03-17T00:52:03;102221;;;1.210273
48628;BMP280;34424;52.234;6.500;2024-03-17T00:57:03;102213;;;1.210273
48628;BMP280;34424;52.234;6.500;2024-03-17T01:02:03;102209.8;;;1.257344
48628;BMP280;34424;52.234;6.500;2024-03-17T01:07:03;102199.9;;;1.280781
48628;BMP280;34424;52.234;6.500;2024-03-17T01:12:03;102206;;;1.181563
48628;BMP280;34424;52.234;6.500;2024-03-17T01:17:03;102202.3;;;1.019453
48628;BMP280;34424;52.234;6.500;2024-03-17T01:22:03;102209.6;;;0.906953
48628;BMP280;34424;52.234;6.500;2024-03-17T01:27:03;102207.8;;;0.791914
48628;BMP280;34424;52.234;6.500;2024-03-17T01:32:03;102204.4;;;0.729219
48628;BMP280;34424;52.234;6.500;2024-03-17T01:37:03;102201.7;;;0.771016
48628;BMP280;34424;52.234;6.500;2024-03-17T01:42:03;102193.7;;;0.799727
48628;BMP280;34424;52.234;6.500;2024-03-17T01:47:03;102192.1;;;0.729219
48628;BMP280;34424;52.234;6.500;2024-03-17T01:52:03;102191.1;;;0.590547
48628;BMP280;34424;52.234;6.500;2024-03-17T01:57:03;102191.5;;;0.533125
48628;BMP280;34424;52.234;6.500;2024-03-17T02:02:03;102193.8;;;0.475508
48628;BMP280;34424;52.234;6.500;2024-03-17T02:07:03;102185.6;;;0.444063
48628;BMP280;34424;52.234;6.500;2024-03-17T02:12:03;102182.6;;;0.43625
48628;BMP280;34424;52.234;6.500;2024-03-17T02:17:03;102175.6;;;0.475508
48628;BMP280;34424;52.234;6.500;2024-03-17T02:22:03;102169.5;;;0.514766
48628;BMP280;34424;52.234;6.500;2024-03-17T02:27:03;102172.8;;;0.561836
48628;BMP280;34424;52.234;6.500;2024-03-17T02:32:03;102171;;;0.619258
48628;BMP280;34424;52.234;6.500;2024-03-17T02:37:03;102169.1;;;0.655977
48628;BMP280;34424;52.234;6.500;2024-03-17T02:42:04;102161.6;;;0.655977
48628;BMP280;34424;52.234;6.500;2024-03-17T02:47:03;102154.4;;;0.66125
48628;BMP280;34424;52.234;6.500;2024-03-17T02:52:03;102146.9;;;0.710859
48628;BMP280;34424;52.234;6.500;2024-03-17T02:57:03;102146.3;;;0.716133
48628;BMP280;34424;52.234;6.500;2024-03-17T03:02:03;102147.8;;;0.66125
48628;BMP280;34424;52.234;6.500;2024-03-17T03:07:03;102149.7;;;0.658516
48628;BMP280;34424;52.234;6.500;2024-03-17T03:12:03;102153.4;;;0.687227
48628;BMP280;34424;52.234;6.500;2024-03-17T03:17:03;102152.1;;;0.786641
48628;BMP280;34424;52.234;6.500;2024-03-17T03:22:03;102155.8;;;0.88332
48628;BMP280;34424;52.234;6.500;2024-03-17T03:27:03;102151.4;;;0.993281
48628;BMP280;34424;52.234;6.500;2024-03-17T03:32:03;102151.7;;;1.076875
48628;BMP280;34424;52.234;6.500;2024-03-17T03:37:03;102154.3;;;1.262617
48628;BMP280;34424;52.234;6.500;2024-03-17T03:42:03;102152.4;;;1.340938
48628;BMP280;34424;52.234;6.500;2024-03-17T03:47:03;102151.6;;;1.602461
48628;BMP280;34424;52.234;6.500;2024-03-17T03:52:03;102153.7;;;1.801094
48628;BMP280;34424;52.234;6.500;2024-03-17T03:57:03;102157.1;;;2.018086
48628;BMP280;34424;52.234;6.500;2024-03-17T04:02:03;102148.7;;;2.235078
48628;BMP280;34424;52.234;6.500;2024-03-17T04:07:03;102143.4;;;2.43918
48628;BMP280;34424;52.234;6.500;2024-03-17T04:12:03;102141.9;;;2.585469
48628;BMP280;34424;52.234;6.500;2024-03-17T04:17:03;102141.3;;;2.781563
48628;BMP280;34424;52.234;6.500;2024-03-17T04:22:03;102134.9;;;2.896602
48628;BMP280;34424;52.234;6.500;2024-03-17T04:27:03;102126;;;3.014375
48628;BMP280;34424;52.234;6.500;2024-03-17T04:32:03;102132.1;;;3.061445
48628;BMP280;34424;52.234;6.500;2024-03-17T04:37:03;102122.5;;;3.186836
48628;BMP280;34424;52.234;6.500;2024-03-17T04:42:03;102113.7;;;3.288789
48628;BMP280;34424;52.234;6.500;2024-03-17T04:47:03;102108.4;;;3.348945
48628;BMP280;34424;52.234;6.500;2024-03-17T04:52:03;102102.2;;;3.422188
48628;BMP280;34424;52.234;6.500;2024-03-17T04:57:03;102096.5;;;3.565938
48628;BMP280;34424;52.234;6.500;2024-03-17T05:02:03;102097;;;3.492695
48628;BMP280;34424;52.234;6.500;2024-03-17T05:07:03;102088.5;;;3.5425
48628;BMP280;34424;52.234;6.500;2024-03-17T05:12:03;102089.1;;;3.487617
48628;BMP280;34424;52.234;6.500;2024-03-17T05:17:03;102085.3;;;3.414375
48628;BMP280;34424;52.234;6.500;2024-03-17T05:22:03;102084.8;;;3.301875
48628;BMP280;34424;52.234;6.500;2024-03-17T05:27:03;102069.9;;;3.223555
48628;BMP280;34424;52.234;6.500;2024-03-17T05:32:03;102073.5;;;3.152852
48628;BMP280;34424;52.234;6.500;2024-03-17T05:37:03;102073.3;;;2.925313
48628;BMP280;34424;52.234;6.500;2024-03-17T05:42:03;102077.2;;;2.797383
48628;BMP280;34424;52.234;6.500;2024-03-17T05:47:03;102082.8;;;2.781563
48628;BMP280;34424;52.234;6.500;2024-03-17T05:52:03;102080.4;;;2.914961
48628;BMP280;34424;52.234;6.500;2024-03-17T05:57:03;102084.1;;;3.137227
48628;BMP280;34424;52.234;6.500;2024-03-17T06:02:03;102085.7;;;3.440547
48628;BMP280;34424;52.234;6.500;2024-03-17T06:07:03;102076.2;;;3.696797
48628;BMP280;34424;52.234;6.500;2024-03-17T06:12:03;102075.5;;;3.965938
48628;BMP280;34424;52.234;6.500;2024-03-17T06:17:03;102077.6;;;4.201289
48628;BMP280;34424;52.234;6.500;2024-03-17T06:22:03;102069.4;;;4.263984
48628;BMP280;34424;52.234;6.500;2024-03-17T06:27:03;102061.6;;;4.465352
48628;BMP280;34424;52.234;6.500;2024-03-17T06:32:03;102064.1;;;4.622188
48628;BMP280;34424;52.234;6.500;2024-03-17T06:37:03;102084.1;;;4.915156
48628;BMP280;34424;52.234;6.500;2024-03-17T06:42:03;102085.6;;;5.255
48628;BMP280;34424;52.234;6.500;2024-03-17T06:47:03;102091.5;;;5.550508
48628;BMP280;34424;52.234;6.500;2024-03-17T06:52:03;102097.9;;;5.647188
48628;BMP280;34424;52.234;6.500;2024-03-17T06:57:03;102082.2;;;5.688984
48628;BMP280;34424;52.234;6.500;2024-03-17T07:02:03;102075.4;;;5.709883
48628;BMP280;34424;52.234;6.500;2024-03-17T07:07:03;102077.5;;;5.858906
48628;BMP280;34424;52.234;6.500;2024-03-17T07:12:03;102074.6;;;6.272188
48628;BMP280;34424;52.234;6.500;2024-03-17T07:17:03;102074.2;;;6.826484
48628;BMP280;34424;52.234;6.500;2024-03-17T07:22:03;102089;;;7.529805
48628;BMP280;34424;52.234;6.500;2024-03-17T07:27:03;102092.9;;;7.809688
48628;BMP280;34424;52.234;6.500;2024-03-17T07:32:03;102092.7;;;8.413593
48628;BMP280;34424;52.234;6.500;2024-03-17T07:37:03;102096.6;;;8.115547
48628;BMP280;34424;52.234;6.500;2024-03-17T07:42:03;102095.4;;;7.854023
48628;BMP280;34424;52.234;6.500;2024-03-17T07:47:03;102087;;;7.890742
48628;BMP280;34424;52.234;6.500;2024-03-17T07:52:03;102080.6;;;8.536446
48628;BMP280;34424;52.234;6.500;2024-03-17T07:57:03;102082.9;;;8.894844
48628;BMP280;34424;52.234;6.500;2024-03-17T08:02:03;102088.3;;;10.05051
48628;BMP280;34424;52.234;6.500;2024-03-17T08:07:03;102085.4;;;11.4548
48628;BMP280;34424;52.234;6.500;2024-03-17T08:12:03;102098.8;;;11.95148
48628;BMP280;34424;52.234;6.500;2024-03-17T08:17:03;102097.8;;;11.62219
48628;BMP280;34424;52.234;6.500;2024-03-17T08:22:03;102091.3;;;12.26555
48628;BMP280;34424;52.234;6.500;2024-03-17T08:27:03;102090.4;;;11.94895
48628;BMP280;34424;52.234;6.500;2024-03-17T08:32:03;102090.5;;;12.39621
48628;BMP280;34424;52.234;6.500;2024-03-17T08:37:03;102094.5;;;12.91926
48628;BMP280;34424;52.234;6.500;2024-03-17T08:42:03;102092.7;;;12.655
48628;BMP280;34424;52.234;6.500;2024-03-17T08:47:03;102081.6;;;12.86164
48628;BMP280;34424;52.234;6.500;2024-03-17T08:52:03;102075.6;;;14.27629
48628;BMP280;34424;52.234;6.500;2024-03-17T08:57:03;102070.1;;;14.32609
48628;BMP280;34424;52.234;6.500;2024-03-17T09:02:03;102074.2;;;13.78215
48628;BMP280;34424;52.234;6.500;2024-03-17T09:07:03;102074.3;;;15.06613
48628;BMP280;34424;52.234;6.500;2024-03-17T09:12:03;102080.3;;;14.02004
48628;BMP280;34424;52.234;6.500;2024-03-17T09:17:03;102075.1;;;13.09699
48628;BMP280;34424;52.234;6.500;2024-03-17T09:22:03;102078.9;;;12.6341
48628;BMP280;34424;52.234;6.500;2024-03-17T09:27:03;102074;;;12.95578
48628;BMP280;34424;52.234;6.500;2024-03-17T09:32:03;102064.4;;;14.94328
48628;BMP280;34424;52.234;6.500;2024-03-17T09:37:03;102066;;;16.16965
48628;BMP280;34424;52.234;6.500;2024-03-17T09:42:03;102063.9;;;16.10441
48628;BMP280;34424;52.234;6.500;2024-03-17T09:47:04;102061;;;17.43801
48628;BMP280;34424;52.234;6.500;2024-03-17T09:52:03;102049.8;;;18.13352
48628;BMP280;34424;52.234;6.500;2024-03-17T09:57:03;102051.5;;;17.74387
48628;BMP280;34424;52.234;6.500;2024-03-17T10:02:03;102046.1;;;16.42063
48628;BMP280;34424;52.234;6.500;2024-03-17T10:07:03;102042.7;;;15.91848
48628;BMP280;34424;52.234;6.500;2024-03-17T10:12:03;102043.9;;;15.78
48628;BMP280;34424;52.234;6.500;2024-03-17T10:17:03;102045.4;;;15.2884
48628;BMP280;34424;52.234;6.500;2024-03-17T10:22:03;102047.5;;;14.08547
48628;BMP280;34424;52.234;6.500;2024-03-17T10:27:03;102047.9;;;13.6175
48628;BMP280;34424;52.234;6.500;2024-03-17T10:32:04;102043.7;;;13.34543
48628;BMP280;34424;52.234;6.500;2024-03-17T10:37:07;102048.2;;;13.0343
48628;BMP280;34424;52.234;6.500;2024-03-17T10:42:04;102051;;;12.95324
48628;BMP280;34424;52.234;6.500;2024-03-17T10:47:03;102050;;;12.77531
48628;BMP280;34424;52.234;6.500;2024-03-17T10:52:04;102043.2;;;12.46691
48628;BMP280;34424;52.234;6.500;2024-03-17T10:57:06;102031.4;;;12.22102
48628;BMP280;34424;52.234;6.500;2024-03-17T11:02:03;102028.3;;;11.96203
48628;BMP280;34424;52.234;6.500;2024-03-17T11:07:03;102031.2;;;11.71105
48628;BMP280;34424;52.234;6.500;2024-03-17T11:12:03;102029.1;;;11.72141
48628;BMP280;34424;52.234;6.500;2024-03-17T11:17:03;102025;;;11.68234
48628;BMP280;34424;52.234;6.500;2024-03-17T11:22:07;102025.9;;;11.42609
48628;BMP280;34424;52.234;6.500;2024-03-17T11:27:03;102016.8;;;11.73195
48628;BMP280;34424;52.234;6.500;2024-03-17T11:32:03;102013.6;;;11.94895
48628;BMP280;34424;52.234;6.500;2024-03-17T11:37:03;102021.8;;;12.10051
48628;BMP280;34424;52.234;6.500;2024-03-17T11:42:10;102016;;;12.6341
48628;BMP280;34424;52.234;6.500;2024-03-17T11:47:04;102014.9;;;12.60793
48628;BMP280;34424;52.234;6.500;2024-03-17T11:52:04;102017.5;;;12.67082
48628;BMP280;34424;52.234;6.500;2024-03-17T11:57:04;102013.9;;;12.62102
48628;BMP280;34424;52.234;6.500;2024-03-17T12:02:07;102010.5;;;12.57922
48628;BMP280;34424;52.234;6.500;2024-03-17T12:07:03;102003.8;;;12.94016
48628;BMP280;34424;52.234;6.500;2024-03-17T12:12:04;101996.3;;;12.97141
48628;BMP280;34424;52.234;6.500;2024-03-17T12:17:04;101990.9;;;13.30617
48628;BMP280;34424;52.234;6.500;2024-03-17T12:22:04;101984.8;;;13.6175
48628;BMP280;34424;52.234;6.500;2024-03-17T12:27:04;101974.2;;;13.62004
48628;BMP280;34424;52.234;6.500;2024-03-17T12:32:04;101965;;;13.905
48628;BMP280;34424;52.234;6.500;2024-03-17T12:37:04;101957.6;;;14.13781
48628;BMP280;34424;52.234;6.500;2024-03-17T12:42:07;101949.2;;;14.00695
48628;BMP280;34424;52.234;6.500;2024-03-17T12:47:04;101946.5;;;13.74035
48628;BMP280;34424;52.234;6.500;2024-03-17T12:52:04;101934.7;;;13.55188
48628;BMP280;34424;52.234;6.500;2024-03-17T12:57:07;101930.3;;;13.33742
48628;BMP280;34424;52.234;6.500;2024-03-17T13:02:04;101927;;;12.83293
48628;BMP280;34424;52.234;6.500;2024-03-17T13:07:08;101921.2;;;13.13879
48628;BMP280;34424;52.234;6.500;2024-03-17T13:12:04;101911.9;;;12.7884
48628;BMP280;34424;52.234;6.500;2024-03-17T13:17:03;101913.7;;;12.99504
48628;BMP280;34424;52.234;6.500;2024-03-17T13:22:03;101902.2;;;13.06555
48628;BMP280;34424;52.234;6.500;2024-03-17T13:27:04;101894.7;;;13.23547
48628;BMP280;34424;52.234;6.500;2024-03-17T13:32:04;101885.6;;;13.46828
48628;BMP280;34424;52.234;6.500;2024-03-17T13:37:03;101875.7;;;13.71164
48628;BMP280;34424;52.234;6.500;2024-03-17T13:42:04;101871.9;;;13.89465
48628;BMP280;34424;52.234;6.500;2024-03-17T13:47:03;101858.3;;;13.72727
48628;BMP280;34424;52.234;6.500;2024-03-17T13:52:03;101853.2;;;13.66457
48628;BMP280;34424;52.234;6.500;2024-03-17T13:57:04;101850;;;13.40031
48628;BMP280;34424;52.234;6.500;2024-03-17T14:02:03;101838.8;;;12.77277
48628;BMP280;34424;52.234;6.500;2024-03-17T14:07:03;101836.9;;;12.79621
48628;BMP280;34424;52.234;6.500;2024-03-17T14:17:04;101826.9;;;12.87219
48628;BMP280;34424;52.234;6.500;2024-03-17T14:22:04;101817.7;;;12.80676
48628;BMP280;34424;52.234;6.500;2024-03-17T14:27:04;101816.6;;;12.80402
48628;BMP280;34424;52.234;6.500;2024-03-17T14:32:04;101814.4;;;12.74406
48628;BMP280;34424;52.234;6.500;2024-03-17T14:37:04;101812.6;;;12.46945
48628;BMP280;34424;52.234;6.500;2024-03-17T14:42:04;101813.8;;;12.42238
48628;BMP280;34424;52.234;6.500;2024-03-17T14:47:03;101812;;;12.55832
48628;BMP280;34424;52.234;6.500;2024-03-17T14:52:03;101812;;;12.61066
48628;BMP280;34424;52.234;6.500;2024-03-17T14:57:04;101803.3;;;12.5009
48628;BMP280;34424;52.234;6.500;2024-03-17T15:02:03;101799;;;12.16613
48628;BMP280;34424;52.234;6.500;2024-03-17T15:07:03;101787;;;12.26555
48628;BMP280;34424;52.234;6.500;2024-03-17T15:12:04;101779.8;;;12.33078
48628;BMP280;34424;52.234;6.500;2024-03-17T15:17:03;101773.5;;;12.23938
48628;BMP280;34424;52.234;6.500;2024-03-17T15:22:03;101767.2;;;12.25246
48628;BMP280;34424;52.234;6.500;2024-03-17T15:27:03;101765.1;;;12.12687
48628;BMP280;34424;52.234;6.500;2024-03-17T15:32:04;101763.8;;;12.01945
48628;BMP280;34424;52.234;6.500;2024-03-17T15:37:03;101759;;;11.96984
48628;BMP280;34424;52.234;6.500;2024-03-17T15:42:04;101751.3;;;12.00383
48628;BMP280;34424;52.234;6.500;2024-03-17T15:47:04;101746.7;;;11.94113
48628;BMP280;34424;52.234;6.500;2024-03-17T15:52:04;101736.2;;;11.97258
48628;BMP280;34424;52.234;6.500;2024-03-17T15:57:04;101729.9;;;11.91242
48628;BMP280;34424;52.234;6.500;2024-03-17T16:02:04;101723.1;;;11.95676
48628;BMP280;34424;52.234;6.500;2024-03-17T16:07:04;101714.6;;;12.03254
48628;BMP280;34424;52.234;6.500;2024-03-17T16:12:04;101713;;;12.10051
48628;BMP280;34424;52.234;6.500;2024-03-17T16:17:04;101705;;;12.32824
48628;BMP280;34424;52.234;6.500;2024-03-17T16:22:04;101700.4;;;12.51398
48628;BMP280;34424;52.234;6.500;2024-03-17T16:27:04;101704.4;;;12.44074
48628;BMP280;34424;52.234;6.500;2024-03-17T16:32:04;101713.6;;;12.42766
48628;BMP280;34424;52.234;6.500;2024-03-17T16:37:04;101709.7;;;12.22883
48628;BMP280;34424;52.234;6.500;2024-03-17T16:42:04;101706.1;;;11.99074
48628;BMP280;34424;52.234;6.500;2024-03-17T16:47:14;101710.3;;;11.80519
48628;BMP280;34424;52.234;6.500;2024-03-17T16:52:04;101712.5;;;11.54367
48628;BMP280;34424;52.234;6.500;2024-03-17T16:57:04;101711.7;;;11.48879
48628;BMP280;34424;52.234;6.500;2024-03-17T17:02:04;101714.1;;;11.37629
48628;BMP280;34424;52.234;6.500;2024-03-17T17:07:04;101714.8;;;11.27434
48628;BMP280;34424;52.234;6.500;2024-03-17T17:12:04;101710.7;;;11.21418
48628;BMP280;34424;52.234;6.500;2024-03-17T17:17:04;101705.7;;;11.16984
48628;BMP280;34424;52.234;6.500;2024-03-17T17:22:04;101708.1;;;11.08879
48628;BMP280;34424;52.234;6.500;2024-03-17T17:27:05;101709.2;;;10.99719
48628;BMP280;34424;52.234;6.500;2024-03-17T17:32:04;101705.7;;;10.92922
48628;BMP280;34424;52.234;6.500;2024-03-17T17:37:04;101700.8;;;10.81945
48628;BMP280;34424;52.234;6.500;2024-03-17T17:42:04;101697.5;;;10.84816
48628;BMP280;34424;52.234;6.500;2024-03-17T17:47:04;101696.2;;;10.71496
48628;BMP280;34424;52.234;6.500;2024-03-17T17:52:04;101694.1;;;10.76711
48628;BMP280;34424;52.234;6.500;2024-03-17T17:57:04;101697;;;10.76711
48628;BMP280;34424;52.234;6.500;2024-03-17T18:02:04;101693.6;;;10.72004
48628;BMP280;34424;52.234;6.500;2024-03-17T18:07:04;101686.3;;;10.68605
48628;BMP280;34424;52.234;6.500;2024-03-17T18:12:04;101687.2;;;10.75676
48628;BMP280;34424;52.234;6.500;2024-03-17T18:17:04;101694.8;;;10.6548
48628;BMP280;34424;52.234;6.500;2024-03-17T18:22:04;101692.3;;;10.48449
48628;BMP280;34424;52.234;6.500;2024-03-17T18:27:04;101694.8;;;10.66262
48628;BMP280;34424;52.234;6.500;2024-03-17T18:32:04;101690.8;;;10.5841
48628;BMP280;34424;52.234;6.500;2024-03-17T18:37:04;101690.1;;;10.39055
48628;BMP280;34424;52.234;6.500;2024-03-17T18:42:04;101689;;;10.39563
48628;BMP280;34424;52.234;6.500;2024-03-17T18:47:04;101693.1;;;10.28332
48628;BMP280;34424;52.234;6.500;2024-03-17T18:52:04;101691.4;;;10.08195
48628;BMP280;34424;52.234;6.500;2024-03-17T18:57:04;101682;;;10.05578
48628;BMP280;34424;52.234;6.500;2024-03-17T19:02:04;101684.1;;;9.985273
48628;BMP280;34424;52.234;6.500;2024-03-17T19:07:04;101678.6;;;9.906757
48628;BMP280;34424;52.234;6.500;2024-03-17T19:12:04;101678.8;;;9.796992
48628;BMP280;34424;52.234;6.500;2024-03-17T19:17:04;101678.1;;;9.632149
48628;BMP280;34424;52.234;6.500;2024-03-17T19:22:04;101679.9;;;9.634883
48628;BMP280;34424;52.234;6.500;2024-03-17T19:27:04;101679.1;;;9.530195
48628;BMP280;34424;52.234;6.500;2024-03-17T19:32:04;101676.4;;;9.613984
48628;BMP280;34424;52.234;6.500;2024-03-17T19:37:04;101678.3;;;9.606172
48628;BMP280;34424;52.234;6.500;2024-03-17T19:42:04;101673.6;;;9.616524
48628;BMP280;34424;52.234;6.500;2024-03-17T19:47:04;101666.8;;;9.569453
48628;BMP280;34424;52.234;6.500;2024-03-17T19:52:04;101656.9;;;9.483125
48628;BMP280;34424;52.234;6.500;2024-03-17T19:57:04;101660.3;;;9.496211
48628;BMP280;34424;52.234;6.500;2024-03-17T20:02:04;101655;;;9.446602
48628;BMP280;34424;52.234;6.500;2024-03-17T20:07:04;101650.2;;;9.472774
48628;BMP280;34424;52.234;6.500;2024-03-17T20:12:04;101642.9;;;9.512032
48628;BMP280;34424;52.234;6.500;2024-03-17T20:17:04;101640.2;;;9.444062
48628;BMP280;34424;52.234;6.500;2024-03-17T20:22:04;101642.6;;;9.412617
48628;BMP280;34424;52.234;6.500;2024-03-17T20:27:04;101639.6;;;9.381172
48628;BMP280;34424;52.234;6.500;2024-03-17T20:32:04;101635.5;;;9.381172
48628;BMP280;34424;52.234;6.500;2024-03-17T20:37:04;101629.4;;;9.279219
48628;BMP280;34424;52.234;6.500;2024-03-17T20:42:04;101620.4;;;9.232148
48628;BMP280;34424;52.234;6.500;2024-03-17T20:47:04;101614.8;;;9.234882
48628;BMP280;34424;52.234;6.500;2024-03-17T20:52:04;101609.5;;;9.245234
48628;BMP280;34424;52.234;6.500;2024-03-17T20:57:04;101608.5;;;9.19289
48628;BMP280;34424;52.234;6.500;2024-03-17T21:02:04;101601.2;;;9.242695
48628;BMP280;34424;52.234;6.500;2024-03-17T21:07:04;101594.3;;;9.255781
48628;BMP280;34424;52.234;6.500;2024-03-17T21:12:04;101591.7;;;9.273945
48628;BMP280;34424;52.234;6.500;2024-03-17T21:17:04;101594.3;;;9.119843
48628;BMP280;34424;52.234;6.500;2024-03-17T21:22:04;101600.1;;;9.077851
48628;BMP280;34424;52.234;6.500;2024-03-17T21:27:04;101593.9;;;9.012617
48628;BMP280;34424;52.234;6.500;2024-03-17T21:32:04;101585;;;9.004805
48628;BMP280;34424;52.234;6.500;2024-03-17T21:37:04;101578.9;;;8.92375
48628;BMP280;34424;52.234;6.500;2024-03-17T21:42:04;101576.4;;;8.850508
48628;BMP280;34424;52.234;6.500;2024-03-17T21:47:04;101572.1;;;8.761641
48628;BMP280;34424;52.234;6.500;2024-03-17T21:52:04;101565.9;;;8.719648
48628;BMP280;34424;52.234;6.500;2024-03-17T21:57:04;101561.8;;;8.638594
48628;BMP280;34424;52.234;6.500;2024-03-17T22:02:04;101555.4;;;8.62043
48628;BMP280;34424;52.234;6.500;2024-03-17T22:07:04;101551.6;;;8.643868
48628;BMP280;34424;52.234;6.500;2024-03-17T22:12:04;101549;;;8.625703
48628;BMP280;34424;52.234;6.500;2024-03-17T22:17:04;101542.3;;;8.709297
48628;BMP280;34424;52.234;6.500;2024-03-17T22:22:04;101538.4;;;8.730195
48628;BMP280;34424;52.234;6.500;2024-03-17T22:27:04;101535.5;;;8.71711
48628;BMP280;34424;52.234;6.500;2024-03-17T22:32:04;101533.6;;;8.764179
48628;BMP280;34424;52.234;6.500;2024-03-17T22:37:04;101526.4;;;8.837421
48628;BMP280;34424;52.234;6.500;2024-03-17T22:42:04;101518.3;;;8.863594
48628;BMP280;34424;52.234;6.500;2024-03-17T22:47:04;101518.3;;;8.813789
48628;BMP280;34424;52.234;6.500;2024-03-17T22:52:04;101512.1;;;8.850508
48628;BMP280;34424;52.234;6.500;2024-03-17T22:57:04;101511.1;;;8.876679
48628;BMP280;34424;52.234;6.500;2024-03-17T23:02:04;101507.4;;;8.892304
48628;BMP280;34424;52.234;6.500;2024-03-17T23:07:04;101506.5;;;8.936836
48628;BMP280;34424;52.234;6.500;2024-03-17T23:12:04;101504.7;;;8.847774
48628;BMP280;34424;52.234;6.500;2024-03-17T23:17:04;101504.9;;;8.837421
48628;BMP280;34424;52.234;6.500;2024-03-17T23:22:04;101497.9;;;8.850508
48628;BMP280;34424;52.234;6.500;2024-03-17T23:27:04;101497;;;8.973359
48628;BMP280;34424;52.234;6.500;2024-03-17T23:32:04;101492.8;;;9.046601
48628;BMP280;34424;52.234;6.500;2024-03-17T23:37:04;101486.9;;;9.127656
48628;BMP280;34424;52.234;6.500;2024-03-17T23:42:04;101493.9;;;9.205976
48628;BMP280;34424;52.234;6.500;2024-03-17T23:47:04;101488.1;;;9.213984
48628;BMP280;34424;52.234;6.500;2024-03-17T23:52:04;101483.2;;;9.130196
48628;BMP280;34424;52.234;6.500;2024-03-17T23:57:04;101478.1;;;9.114571
